Terminal Aerodrome Forecast
Issued by NWS

Home | Current Version | Previous Version | Text Only | Print | Product List | Glossary On
Versions: 1 2 3 4 5 6 7 8 9 10 11 12 13 14 15 16 17 18
000
FTUS43 KDMX 251831 AAA
TAFOTM
TAF AMD
KOTM 251831Z 2519/2618 31012KT P6SM SCT250
     FM252200 27008KT P6SM SCT200
     FM260300 20004KT P6SM BKN100
     FM260700 18008KT P6SM BKN080
     FM261100 22011KT P6SM BKN140
     FM261500 24014G22KT P6SM BKN200=

USA.gov is the U.S. government's official web portal to all federal, state and local government web resources and services.